createdAt,value
2023-02-12T00:01:09.386Z,0.69
2023-02-12T00:03:37.056Z,0.59
2023-02-12T00:06:04.088Z,0.51
2023-02-12T00:08:30.844Z,0.62
2023-02-12T00:10:57.593Z,0.46
2023-02-12T00:13:24.203Z,0.57
2023-02-12T00:15:50.880Z,0.53
2023-02-12T00:18:17.437Z,0.42
2023-02-12T00:20:43.920Z,0.51
2023-02-12T00:23:11.280Z,0.25
2023-02-12T00:25:41.909Z,0.42
2023-02-12T00:28:08.685Z,0.37
2023-02-12T00:30:35.998Z,0.45
2023-02-12T00:33:02.949Z,0.53
2023-02-12T00:35:29.567Z,0.50
2023-02-12T00:37:56.109Z,0.35
2023-02-12T00:40:22.630Z,0.42
2023-02-12T00:42:49.282Z,0.29
2023-02-12T00:45:17.262Z,0.45
2023-02-12T00:47:43.778Z,0.39
2023-02-12T00:50:10.827Z,0.49
2023-02-12T00:52:37.581Z,0.47
2023-02-12T00:55:05.515Z,0.33
2023-02-12T00:57:33.384Z,0.33
2023-02-12T00:59:59.983Z,0.18
2023-02-12T01:02:26.613Z,0.27
2023-02-12T01:04:53.427Z,0.09
2023-02-12T01:07:23.514Z,-0.05
2023-02-12T01:09:50.075Z,0.06
2023-02-12T01:12:16.615Z,-0.32
2023-02-12T01:14:43.179Z,-0.01
2023-02-12T01:17:09.710Z,-0.40
2023-02-12T01:19:36.284Z,-0.23
2023-02-12T01:22:02.882Z,-0.07
2023-02-12T01:24:29.455Z,-0.03
2023-02-12T01:26:58.412Z,-0.20
2023-02-12T01:29:24.960Z,-0.39
2023-02-12T01:31:51.696Z,-0.21
2023-02-12T01:34:18.434Z,-0.08
2023-02-12T01:36:44.942Z,-0.21
2023-02-12T01:39:12.326Z,-0.15
2023-02-12T01:41:44.747Z,-0.25
2023-02-12T01:44:18.572Z,-0.25
2023-02-12T01:46:47.669Z,-0.33
2023-02-12T01:49:22.697Z,-0.42
2023-02-12T01:51:55.660Z,-0.50
2023-02-12T01:54:25.757Z,-0.50
2023-02-12T01:56:53.261Z,-0.66
2023-02-12T01:59:20.910Z,-0.59
2023-02-12T02:01:47.813Z,-0.60
2023-02-12T02:04:18.935Z,-0.24
2023-02-12T02:07:06.385Z,-0.13
2023-02-12T02:09:35.913Z,-0.15
2023-02-12T02:12:21.205Z,0.02
2023-02-12T02:14:49.748Z,0.03
2023-02-12T02:17:29.749Z,0.03
2023-02-12T02:20:21.147Z,-0.24
2023-02-12T02:23:05.545Z,0.02
2023-02-12T02:25:34.942Z,-0.04
2023-02-12T02:28:11.213Z,-0.21
2023-02-12T02:31:15.008Z,-0.10
2023-02-12T02:34:07.187Z,-0.04
2023-02-12T02:36:59.354Z,0.03
2023-02-12T02:40:05.746Z,-0.06
2023-02-12T02:42:40.946Z,0.14
2023-02-12T02:45:36.038Z,0.03
2023-02-12T02:48:14.429Z,0.15
2023-02-12T02:50:46.142Z,0.14
2023-02-12T02:53:18.322Z,-0.02
2023-02-12T02:55:50.402Z,0.20
2023-02-12T02:58:23.148Z,-0.03
2023-02-12T03:01:02.003Z,0.14
2023-02-12T03:03:34.766Z,0.30
2023-02-12T03:06:08.139Z,0.41
2023-02-12T03:08:48.244Z,0.47
2023-02-12T03:11:24.504Z,0.46
2023-02-12T03:13:59.247Z,0.36
2023-02-12T03:16:37.510Z,0.44
2023-02-12T03:19:21.441Z,0.49
2023-02-12T03:21:58.500Z,0.17
2023-02-12T03:24:46.325Z,0.37
2023-02-12T03:27:32.978Z,0.48
2023-02-12T03:30:00.754Z,0.18
2023-02-12T03:32:36.462Z,0.47
2023-02-12T03:35:19.176Z,0.50
2023-02-12T03:38:09.012Z,0.60
2023-02-12T03:40:46.161Z,0.58
2023-02-12T03:43:22.546Z,0.27
2023-02-12T03:46:01.004Z,0.39
2023-02-12T03:48:35.940Z,0.15
2023-02-12T03:51:28.731Z,0.11
2023-02-12T03:53:57.549Z,0.12
2023-02-12T03:56:30.762Z,0.35
2023-02-12T03:58:57.639Z,0.12
2023-02-12T04:01:24.438Z,0.28
2023-02-12T04:03:51.052Z,0.26
2023-02-12T04:06:23.622Z,0.53
2023-02-12T04:08:50.298Z,0.27
2023-02-12T04:11:47.029Z,0.43
2023-02-12T04:14:22.836Z,0.59
2023-02-12T04:17:21.144Z,0.47
2023-02-12T04:20:06.143Z,0.35
2023-02-12T04:22:51.561Z,0.54
2023-02-12T04:25:26.327Z,0.66
2023-02-12T04:28:13.443Z,0.69
2023-02-12T04:30:47.502Z,0.69
2023-02-12T04:33:18.585Z,0.71
2023-02-12T04:35:59.166Z,0.79
2023-02-12T04:38:31.929Z,0.80
2023-02-12T04:40:59.216Z,0.81
2023-02-12T04:43:36.595Z,0.77
2023-02-12T04:46:08.550Z,0.83
2023-02-12T04:48:42.270Z,0.89
2023-02-12T04:51:10.278Z,0.84
2023-02-12T04:53:38.236Z,0.87
2023-02-12T04:56:05.213Z,0.66
2023-02-12T04:58:31.724Z,0.72
2023-02-12T05:00:59.724Z,0.71
2023-02-12T05:03:26.370Z,0.78
2023-02-12T05:05:53.023Z,0.78
2023-02-12T05:08:19.852Z,0.67
2023-02-12T05:10:46.402Z,0.69
2023-02-12T05:13:12.985Z,0.69
2023-02-12T05:15:39.768Z,0.72
2023-02-12T05:18:06.331Z,0.75
2023-02-12T05:20:32.862Z,0.79
2023-02-12T05:22:59.336Z,0.83
2023-02-12T05:25:25.975Z,0.90
2023-02-12T05:27:52.480Z,0.88
2023-02-12T05:30:19.202Z,0.81
2023-02-12T05:32:45.789Z,0.88
2023-02-12T05:35:12.344Z,0.85
2023-02-12T05:37:38.949Z,0.89
2023-02-12T05:40:06.360Z,0.79
2023-02-12T05:42:32.983Z,0.74
2023-02-12T05:44:59.643Z,0.73
2023-02-12T05:47:26.152Z,0.87
2023-02-12T05:49:52.818Z,0.91
2023-02-12T05:52:19.316Z,0.92
2023-02-12T05:54:49.484Z,0.95
2023-02-12T05:57:16.070Z,0.99
2023-02-12T05:59:42.601Z,0.88
2023-02-12T06:02:09.086Z,0.86
2023-02-12T06:04:35.622Z,0.76
2023-02-12T06:07:02.145Z,0.56
2023-02-12T06:09:28.739Z,0.69
2023-02-12T06:11:55.463Z,0.79
2023-02-12T06:14:22.138Z,0.74
2023-02-12T06:16:50.497Z,0.74
2023-02-12T06:19:18.399Z,0.81
2023-02-12T06:21:45.158Z,0.77
2023-02-12T06:24:13.805Z,0.83
2023-02-12T06:26:40.482Z,0.92
2023-02-12T06:29:07.104Z,0.91
2023-02-12T06:31:36.126Z,0.99
2023-02-12T06:34:06.147Z,1.00
2023-02-12T06:36:33.348Z,0.91
2023-02-12T06:39:04.276Z,0.97
2023-02-12T06:41:30.990Z,0.93
2023-02-12T06:43:57.638Z,0.99
2023-02-12T06:46:24.908Z,1.04
2023-02-12T06:48:56.297Z,0.96
2023-02-12T06:51:23.692Z,0.89
2023-02-12T06:53:52.334Z,0.79
2023-02-12T06:56:20.209Z,0.95
2023-02-12T06:58:51.743Z,1.07
2023-02-12T07:01:21.431Z,0.88
2023-02-12T07:03:50.694Z,0.81
2023-02-12T07:06:17.675Z,1.07
2023-02-12T07:08:44.685Z,1.18
2023-02-12T07:11:12.035Z,1.05
2023-02-12T07:13:41.480Z,0.86
2023-02-12T07:16:11.098Z,0.95
2023-02-12T07:18:37.973Z,1.10
2023-02-12T07:21:06.204Z,1.23
2023-02-12T07:23:33.355Z,1.30
2023-02-12T07:26:02.670Z,1.33
2023-02-12T07:28:29.411Z,1.37
2023-02-12T07:30:56.114Z,1.39
2023-02-12T07:33:22.685Z,1.43
2023-02-12T07:35:49.196Z,1.43
2023-02-12T07:38:15.876Z,1.45
2023-02-12T07:40:42.492Z,1.48
2023-02-12T07:43:09.302Z,1.39
2023-02-12T07:45:36.485Z,1.47
2023-02-12T07:48:03.288Z,1.40
2023-02-12T07:50:29.909Z,1.46
2023-02-12T07:52:56.671Z,0.81
2023-02-12T07:55:23.251Z,0.88
2023-02-12T07:57:49.777Z,0.91
2023-02-12T08:00:16.786Z,1.12
2023-02-12T08:02:43.476Z,1.31
2023-02-12T08:05:10.072Z,1.47
2023-02-12T08:07:36.682Z,1.32
2023-02-12T08:10:03.545Z,1.37
2023-02-12T08:12:30.079Z,1.48
2023-02-12T08:14:56.569Z,1.60
2023-02-12T08:17:23.083Z,1.06
2023-02-12T08:19:49.668Z,1.33
2023-02-12T08:22:16.210Z,1.44
2023-02-12T08:24:43.268Z,1.66
2023-02-12T08:27:09.849Z,1.74
2023-02-12T08:29:36.792Z,1.70
2023-02-12T08:32:06.310Z,1.92
2023-02-12T08:34:35.527Z,1.69
2023-02-12T08:37:04.281Z,1.50
2023-02-12T08:39:30.862Z,1.70
2023-02-12T08:41:59.385Z,1.91
2023-02-12T08:44:26.405Z,1.88
2023-02-12T08:46:55.536Z,1.68
2023-02-12T08:49:28.431Z,1.51
2023-02-12T08:51:57.122Z,2.02
2023-02-12T08:54:26.178Z,2.03
2023-02-12T08:56:57.775Z,1.74
2023-02-12T08:59:24.584Z,2.34
2023-02-12T09:01:52.383Z,1.96
2023-02-12T09:04:25.166Z,1.81
2023-02-12T09:06:52.561Z,2.02
2023-02-12T09:09:19.873Z,2.17
2023-02-12T09:11:47.392Z,2.32
2023-02-12T09:14:16.389Z,2.50
2023-02-12T09:16:42.991Z,2.38
2023-02-12T09:19:12.504Z,2.26
2023-02-12T09:21:39.062Z,2.63
2023-02-12T09:24:05.782Z,2.69
2023-02-12T09:26:32.359Z,2.65
2023-02-12T09:35:40.504Z,3.14
2023-02-12T09:38:11.101Z,3.65
2023-02-12T09:41:07.953Z,3.76
2023-02-12T09:43:56.792Z,3.85
2023-02-12T09:54:44.427Z,4.72
2023-02-12T09:58:00.510Z,5.02
2023-02-12T10:06:51.380Z,4.50
2023-02-12T10:09:30.604Z,4.36
2023-02-12T10:12:22.727Z,4.53
2023-02-12T10:15:28.126Z,3.85
2023-02-12T10:18:22.249Z,4.18
2023-02-12T10:21:08.352Z,4.77
2023-02-12T10:23:47.636Z,5.03
2023-02-12T10:26:30.938Z,4.84
2023-02-12T10:29:08.350Z,3.70
2023-02-12T10:31:38.415Z,4.22
2023-02-12T10:34:21.276Z,3.97
2023-02-12T10:36:55.532Z,3.84
2023-02-12T10:39:28.001Z,4.02
2023-02-12T10:42:32.672Z,4.51
2023-02-12T10:44:59.434Z,3.98
2023-02-12T10:47:26.818Z,4.13
2023-02-12T10:49:59.794Z,4.12
2023-02-12T10:52:58.033Z,4.60
2023-02-12T10:55:33.570Z,4.20
2023-02-12T10:58:02.456Z,3.76
2023-02-12T11:00:32.735Z,4.60
2023-02-12T11:03:11.531Z,4.45
2023-02-12T11:05:41.167Z,4.78
2023-02-12T11:08:26.207Z,4.66
2023-02-12T11:10:53.392Z,4.49
2023-02-12T11:13:29.312Z,4.83
2023-02-12T11:15:56.121Z,4.86
2023-02-12T11:18:26.269Z,5.46
2023-02-12T11:20:57.811Z,4.99
2023-02-12T11:23:39.575Z,5.43
2023-02-12T11:26:18.257Z,5.63
2023-02-12T11:28:58.606Z,5.45
2023-02-12T11:31:35.142Z,5.17
2023-02-12T11:34:20.100Z,5.25
2023-02-12T11:36:49.912Z,4.84
2023-02-12T11:39:19.558Z,5.42
2023-02-12T11:41:52.620Z,5.42
2023-02-12T11:44:37.292Z,5.93
2023-02-12T11:47:18.608Z,5.58
2023-02-12T11:50:00.425Z,5.31
2023-02-12T11:52:31.028Z,5.68
2023-02-12T11:55:01.377Z,5.01
2023-02-12T11:57:40.271Z,5.83
2023-02-12T12:00:28.202Z,4.40
2023-02-12T12:03:04.730Z,5.58
2023-02-12T12:05:38.518Z,5.69
2023-02-12T12:08:12.627Z,5.32
2023-02-12T12:11:08.141Z,5.66
2023-02-12T12:13:41.695Z,4.69
2023-02-12T12:16:44.251Z,4.07
2023-02-12T12:19:54.681Z,4.69
2023-02-12T12:22:26.934Z,4.86
2023-02-12T12:25:00.796Z,4.95
2023-02-12T12:27:59.990Z,5.25
2023-02-12T12:31:07.221Z,5.46
2023-02-12T12:34:03.224Z,5.07
2023-02-12T12:37:14.637Z,5.10
2023-02-12T12:40:00.089Z,5.05
2023-02-12T12:43:03.313Z,5.15
2023-02-12T12:46:04.112Z,4.84
2023-02-12T12:48:55.705Z,4.98
2023-02-12T12:51:34.392Z,5.17
2023-02-12T12:54:09.770Z,5.43
2023-02-12T12:56:57.450Z,5.02
2023-02-12T12:59:55.044Z,5.03
2023-02-12T13:02:44.879Z,5.03
2023-02-12T13:05:49.899Z,4.91
2023-02-12T13:08:33.662Z,4.92
2023-02-12T13:11:02.967Z,5.03
2023-02-12T13:13:44.995Z,4.48
2023-02-12T13:16:38.506Z,4.99
2023-02-12T13:19:04.959Z,4.90
2023-02-12T13:21:48.627Z,4.47
2023-02-12T13:24:26.768Z,4.32
2023-02-12T13:27:07.721Z,3.99
2023-02-12T13:29:50.233Z,4.50
2023-02-12T13:32:25.770Z,4.99
2023-02-12T13:34:55.038Z,4.99
2023-02-12T13:37:45.647Z,4.77
2023-02-12T13:40:18.671Z,5.04
2023-02-12T13:42:48.222Z,4.64
2023-02-12T13:45:46.361Z,4.50
2023-02-12T13:48:47.059Z,4.77
2023-02-12T13:51:16.591Z,4.55
2023-02-12T13:54:04.724Z,4.38
2023-02-12T13:56:44.016Z,4.43
2023-02-12T13:59:32.471Z,4.38
2023-02-12T14:01:59.490Z,4.78
2023-02-12T14:04:32.027Z,4.94
2023-02-12T14:07:07.770Z,4.78
2023-02-12T14:09:45.088Z,4.32
2023-02-12T14:12:16.423Z,4.86
2023-02-12T14:14:49.945Z,5.01
2023-02-12T14:17:29.088Z,4.63
2023-02-12T14:19:56.970Z,4.80
2023-02-12T14:22:26.460Z,4.88
2023-02-12T14:24:57.999Z,4.73
2023-02-12T14:27:42.866Z,4.82
2023-02-12T14:30:09.914Z,4.69
2023-02-12T14:32:55.649Z,4.51
2023-02-12T14:35:40.006Z,4.69
2023-02-12T14:38:10.204Z,4.80
2023-02-12T14:40:44.001Z,4.63
2023-02-12T14:43:32.645Z,4.28
2023-02-12T14:46:22.271Z,4.32
2023-02-12T14:48:51.888Z,4.33
2023-02-12T14:52:06.535Z,4.38
2023-02-12T14:54:56.394Z,4.03
2023-02-12T14:57:29.466Z,4.20
2023-02-12T15:00:20.726Z,4.25
2023-02-12T15:03:13.629Z,4.44
2023-02-12T15:05:49.597Z,4.51
2023-02-12T15:08:37.962Z,4.60
2023-02-12T15:11:21.621Z,4.77
2023-02-12T15:14:15.497Z,4.50
2023-02-12T15:16:48.072Z,4.74
2023-02-12T15:19:40.474Z,4.67
2023-02-12T15:22:30.630Z,4.55
2023-02-12T15:25:24.595Z,4.68
2023-02-12T15:27:58.942Z,4.56
2023-02-12T15:30:32.793Z,4.55
2023-02-12T15:33:03.411Z,4.52
2023-02-12T15:35:32.499Z,4.57
2023-02-12T15:38:03.420Z,4.57
2023-02-12T15:40:31.631Z,4.62
2023-02-12T15:42:59.543Z,4.55
2023-02-12T15:45:33.480Z,4.47
2023-02-12T15:48:02.393Z,4.38
2023-02-12T15:50:30.793Z,4.36
2023-02-12T15:52:57.503Z,4.11
2023-02-12T15:55:27.335Z,4.27
2023-02-12T15:58:00.842Z,4.04
2023-02-12T16:00:32.023Z,3.64
2023-02-12T16:02:58.627Z,3.60
2023-02-12T16:05:26.350Z,3.30
2023-02-12T16:07:54.065Z,3.23
2023-02-12T16:10:22.516Z,2.92
2023-02-12T16:12:50.891Z,2.68
2023-02-12T16:15:25.256Z,2.41
2023-02-12T16:17:51.896Z,2.39
2023-02-12T16:20:19.092Z,2.42
2023-02-12T16:22:48.251Z,2.27
2023-02-12T16:25:24.864Z,2.18
2023-02-12T16:27:54.579Z,2.28
2023-02-12T16:30:48.411Z,2.20
2023-02-12T16:33:34.109Z,2.37
2023-02-12T16:36:02.860Z,2.32
2023-02-12T16:39:01.807Z,2.25
2023-02-12T16:41:33.377Z,2.46
2023-02-12T16:44:03.316Z,2.48
2023-02-12T16:46:33.153Z,2.53
2023-02-12T16:49:02.115Z,2.42
2023-02-12T16:51:36.502Z,2.45
2023-02-12T16:54:05.005Z,2.71
2023-02-12T16:56:38.568Z,2.70
2023-02-12T16:59:06.696Z,2.48
2023-02-12T17:01:36.572Z,2.68
2023-02-12T17:04:16.316Z,2.64
2023-02-12T17:06:43.687Z,2.54
2023-02-12T17:09:10.710Z,2.58
2023-02-12T17:11:37.232Z,2.63
2023-02-12T17:14:03.780Z,2.65
2023-02-12T17:16:31.759Z,2.77
2023-02-12T17:19:00.173Z,2.74
2023-02-12T17:21:38.406Z,2.64
2023-02-12T17:24:21.108Z,2.88
2023-02-12T17:26:50.320Z,2.94
2023-02-12T17:29:18.111Z,2.74
2023-02-12T17:31:45.041Z,2.66
2023-02-12T17:34:11.980Z,2.61
2023-02-12T17:36:38.645Z,2.43
2023-02-12T17:39:06.807Z,2.73
2023-02-12T17:41:34.100Z,2.54
2023-02-12T17:44:00.880Z,2.62
2023-02-12T17:46:28.727Z,2.73
2023-02-12T17:48:56.473Z,2.77
2023-02-12T17:51:23.148Z,2.80
2023-02-12T17:53:49.677Z,2.77
2023-02-12T17:56:21.729Z,2.70
2023-02-12T17:58:49.384Z,2.81
2023-02-12T18:01:19.365Z,2.89
2023-02-12T18:03:46.119Z,2.94
2023-02-12T18:06:16.380Z,3.05
2023-02-12T18:08:46.270Z,3.06
2023-02-12T18:11:13.387Z,3.01
2023-02-12T18:13:40.025Z,2.85
2023-02-12T18:16:08.422Z,2.93
2023-02-12T18:18:37.292Z,2.81
2023-02-12T18:21:12.094Z,3.05
2023-02-12T18:23:39.535Z,3.14
2023-02-12T18:26:12.467Z,2.99
2023-02-12T18:28:39.204Z,2.94
2023-02-12T18:31:06.783Z,2.91
2023-02-12T18:33:34.159Z,2.76
2023-02-12T18:36:12.726Z,2.90
2023-02-12T18:38:41.425Z,2.94
2023-02-12T18:41:15.794Z,2.90
2023-02-12T18:43:43.920Z,2.95
2023-02-12T18:46:14.621Z,2.78
2023-02-12T18:48:41.284Z,3.01
2023-02-12T18:51:09.261Z,3.12
2023-02-12T18:53:36.189Z,3.07
2023-02-12T18:56:08.586Z,3.04
2023-02-12T18:58:36.161Z,3.07
2023-02-12T19:01:16.054Z,2.88
2023-02-12T19:03:44.234Z,3.04
2023-02-12T19:06:11.503Z,2.86
2023-02-12T19:08:38.083Z,2.79
2023-02-12T19:11:09.972Z,2.71
2023-02-12T19:13:37.152Z,2.79
2023-02-12T19:16:14.859Z,2.83
2023-02-12T19:18:41.426Z,2.87
2023-02-12T19:21:10.768Z,2.85
2023-02-12T19:23:37.767Z,2.94
2023-02-12T19:26:06.514Z,2.90
2023-02-12T19:28:34.493Z,2.89
2023-02-12T19:31:10.922Z,3.06
2023-02-12T19:33:39.117Z,2.91
2023-02-12T19:36:07.557Z,2.95
2023-02-12T19:38:35.686Z,3.08
2023-02-12T19:41:07.866Z,2.78
2023-02-12T19:43:34.978Z,2.74
2023-02-12T19:46:10.568Z,2.74
2023-02-12T19:48:37.522Z,2.59
2023-02-12T19:51:04.487Z,2.57
2023-02-12T19:53:31.412Z,2.49
2023-02-12T19:56:04.513Z,2.89
2023-02-12T19:58:31.208Z,2.45
2023-02-12T20:00:58.380Z,2.58
2023-02-12T20:03:26.448Z,2.49
2023-02-12T20:06:05.164Z,2.43
2023-02-12T20:08:33.372Z,2.40
2023-02-12T20:10:59.965Z,2.16
2023-02-12T20:13:27.749Z,2.51
2023-02-12T20:15:54.624Z,2.37
2023-02-12T20:18:21.351Z,2.38
2023-02-12T20:20:47.926Z,2.54
2023-02-12T20:23:14.462Z,2.64
2023-02-12T20:25:45.296Z,2.58
2023-02-12T20:28:12.227Z,2.57
2023-02-12T20:30:40.983Z,2.32
2023-02-12T20:33:07.731Z,2.49
2023-02-12T20:35:37.070Z,2.53
2023-02-12T20:38:07.601Z,1.99
2023-02-12T20:40:34.375Z,2.39
2023-02-12T20:43:00.913Z,2.26
2023-02-12T20:45:27.972Z,2.31
2023-02-12T20:48:00.711Z,1.92
2023-02-12T20:50:27.489Z,2.28
2023-02-12T20:52:54.136Z,2.35
2023-02-12T20:55:20.961Z,2.06
2023-02-12T20:57:49.475Z,2.40
2023-02-12T21:00:17.076Z,2.25
2023-02-12T21:02:43.656Z,2.17
2023-02-12T21:05:10.351Z,2.29
2023-02-12T21:07:36.922Z,2.26
2023-02-12T21:10:03.551Z,2.38
2023-02-12T21:12:30.127Z,2.44
2023-02-12T21:14:56.697Z,2.41
2023-02-12T21:17:24.569Z,2.70
2023-02-12T21:19:51.055Z,2.65
2023-02-12T21:22:17.781Z,2.59
2023-02-12T21:24:44.324Z,2.65
2023-02-12T21:27:11.747Z,2.72
2023-02-12T21:29:38.314Z,2.78
2023-02-12T21:32:05.069Z,2.48
2023-02-12T21:34:31.764Z,2.54
2023-02-12T21:36:58.322Z,2.55
2023-02-12T21:39:27.755Z,2.56
2023-02-12T21:41:58.384Z,2.34
2023-02-12T21:44:26.686Z,2.21
2023-02-12T21:46:54.389Z,2.00
2023-02-12T21:49:29.816Z,1.95
2023-02-12T21:52:01.878Z,2.07
2023-02-12T21:54:29.787Z,1.74
2023-02-12T21:56:56.710Z,1.89
2023-02-12T21:59:24.814Z,1.90
2023-02-12T22:01:53.760Z,1.80
2023-02-12T22:04:20.269Z,2.03
2023-02-12T22:06:49.512Z,2.08
2023-02-12T22:09:18.787Z,2.04
2023-02-12T22:11:45.793Z,2.12
2023-02-12T22:14:15.795Z,2.24
2023-02-12T22:16:42.721Z,2.36
2023-02-12T22:19:09.683Z,2.43
2023-02-12T22:21:40.160Z,2.08
2023-02-12T22:24:09.404Z,1.78
2023-02-12T22:26:36.219Z,1.89
2023-02-12T22:29:06.813Z,1.71
2023-02-12T22:31:35.516Z,2.08
2023-02-12T22:34:05.059Z,2.13
2023-02-12T22:36:34.972Z,1.98
2023-02-12T22:39:01.684Z,2.20
2023-02-12T22:41:28.809Z,2.06
2023-02-12T22:43:58.299Z,1.94
2023-02-12T22:46:24.979Z,2.16
2023-02-12T22:48:51.780Z,2.04
2023-02-12T22:51:30.040Z,2.11
2023-02-12T22:53:57.065Z,2.12
2023-02-12T22:56:25.062Z,2.26
2023-02-12T22:59:00.023Z,2.40
2023-02-12T23:01:27.800Z,2.33
2023-02-12T23:03:55.027Z,2.15
2023-02-12T23:06:24.087Z,2.29
2023-02-12T23:08:52.414Z,2.30
2023-02-12T23:11:19.565Z,2.43
2023-02-12T23:13:46.868Z,2.44
2023-02-12T23:16:13.602Z,2.17
2023-02-12T23:18:40.158Z,2.35
2023-02-12T23:21:06.760Z,2.46
2023-02-12T23:23:33.305Z,2.38
2023-02-12T23:26:00.190Z,2.15
2023-02-12T23:28:26.855Z,1.99
2023-02-12T23:30:53.451Z,1.96
2023-02-12T23:33:20.720Z,1.87
2023-02-12T23:35:48.251Z,1.98
2023-02-12T23:38:15.602Z,2.23
2023-02-12T23:40:42.844Z,1.94
2023-02-12T23:43:09.607Z,1.96
2023-02-12T23:45:36.128Z,2.08
2023-02-12T23:48:02.705Z,2.27
2023-02-12T23:50:29.301Z,2.29
2023-02-12T23:52:55.885Z,2.41
2023-02-12T23:55:22.369Z,2.32
2023-02-12T23:57:50.046Z,2.18
